Paupack, Pennsylvania
Current Conditions -  °F | °C
As of 6:19 AM on Friday 28 Nov 2014 (Local Time) from KMPO Reporting Station
Light Snow Light Snow  
Wind Chill: 12°   Ceiling: 2400
Heat Index: 24°   Visibility: 1.7mi
Dew Point: 19°   Wind: 13mph
Humidity: 81%   Direction: 330°NNW
Pressure: 30.04"   Gusts: 21mph
Location:  41.4°N, 75.2°W
Report Text: KMPO 281119Z AUTO 33011G18KT 1 3/4SM -SN SCT019 BKN024 OVC029 M04/M07 A3004 RMK AO2 P0000 T10441072
Loading
Personal Weather Stations






























Interactive Weather Map New forecast layout! Learn more

10-Day Weather Forecast

Advertisements
Track Severe Weather on mobile